Time;durP1;ratioP1;P1;durP2;ratioP2;P2;SDS_P1;SDS_P2;PMS_P1;PMS_P2;Temp;Humidity;BMP_temperature;BMP_pressure;BME280_temperature;BME280_humidity;BME280_pressure;Samples;Min_cycle;Max_cycle;Signal;HPM_P1;HPM_P2
2021/06/19 00:01:55;;;;;;;18.05;16.33;;;19.10;99.90;;;;;;5083581;28;20089;-65
2021/06/19 00:04:20;;;;;;;18.75;17.05;;;19.00;99.90;;;;;;5089893;28;20044;-65
2021/06/19 00:06:46;;;;;;;18.45;16.65;;;19.00;99.90;;;;;;5071315;28;20661;-66
2021/06/19 00:09:12;;;;;;;18.63;16.88;;;19.00;99.90;;;;;;5070623;28;20036;-65
2021/06/19 00:11:37;;;;;;;19.33;17.63;;;18.90;99.90;;;;;;5076352;28;20112;-65
2021/06/19 00:14:03;;;;;;;18.23;16.63;;;18.90;99.90;;;;;;5058129;28;20045;-65
2021/06/19 00:16:29;;;;;;;18.88;16.98;;;18.90;99.90;;;;;;5076082;28;20093;-65
2021/06/19 00:18:54;;;;;;;17.95;16.45;;;18.80;99.90;;;;;;5088869;28;20036;-65
2021/06/19 00:21:20;;;;;;;20.67;18.73;;;18.80;99.90;;;;;;5081694;28;20041;-65
2021/06/19 00:23:46;;;;;;;18.40;16.83;;;18.90;99.90;;;;;;5071989;28;20111;-65
2021/06/19 00:26:12;;;;;;;18.80;17.20;;;18.90;99.90;;;;;;5079233;28;20036;-66
2021/06/19 00:28:37;;;;;;;19.70;18.02;;;18.90;99.90;;;;;;5073919;28;20060;-66
2021/06/19 00:31:03;;;;;;;19.35;17.52;;;18.90;99.90;;;;;;5076421;28;20032;-65
2021/06/19 00:33:29;;;;;;;20.13;18.30;;;18.80;99.90;;;;;;5090979;28;20109;-66
2021/06/19 00:35:54;;;;;;;21.15;18.45;;;18.80;99.90;;;;;;5082293;28;20040;-66
2021/06/19 00:38:20;;;;;;;18.48;16.92;;;18.80;99.90;;;;;;5085342;28;20055;-66
2021/06/19 00:40:45;;;;;;;20.50;18.63;;;18.70;99.90;;;;;;5084865;28;20040;-65
2021/06/19 00:43:11;;;;;;;20.10;18.40;;;18.80;99.90;;;;;;5093222;28;20048;-65
2021/06/19 00:45:38;;;;;;;20.05;18.05;;;18.80;99.90;;;;;;5089335;28;20091;-65
2021/06/19 00:48:12;;;;;;;19.45;17.65;;;18.80;99.90;;;;;;5091988;28;20036;-65
2021/06/19 00:50:40;;;;;;;21.23;19.45;;;18.80;99.90;;;;;;5078344;28;20033;-66
2021/06/19 00:53:06;;;;;;;20.67;18.58;;;18.80;99.90;;;;;;5083040;28;20093;-65
2021/06/19 00:55:31;;;;;;;21.77;19.73;;;18.70;99.90;;;;;;5089374;28;20037;-65
2021/06/19 00:58:00;;;;;;;21.30;19.17;;;18.80;99.90;;;;;;5091060;28;20054;-65
2021/06/19 01:00:26;;;;;;;21.65;19.65;;;18.80;99.90;;;;;;5083342;28;20047;-65
2021/06/19 01:02:56;;;;;;;22.48;20.38;;;18.80;99.90;;;;;;5076907;28;20044;-65
2021/06/19 01:05:23;;;;;;;21.30;19.35;;;18.70;99.90;;;;;;5091547;28;20064;-65
2021/06/19 01:07:49;;;;;;;23.52;19.67;;;18.70;99.90;;;;;;5073010;28;20043;-65
2021/06/19 01:10:15;;;;;;;23.92;21.52;;;18.70;99.90;;;;;;5092927;28;20123;-65
2021/06/19 01:12:42;;;;;;;20.90;18.95;;;18.70;99.90;;;;;;5091388;28;20072;-65
2021/06/19 01:15:08;;;;;;;21.48;19.48;;;18.70;99.90;;;;;;5071861;28;20028;-65
2021/06/19 01:17:34;;;;;;;21.05;19.10;;;18.70;99.90;;;;;;5074901;28;20040;-65
2021/06/19 01:20:08;;;;;;;20.70;18.73;;;18.70;99.90;;;;;;5073987;28;20131;-65
2021/06/19 01:22:37;;;;;;;22.05;20.05;;;18.60;99.90;;;;;;5091616;28;20044;-65
2021/06/19 01:25:06;;;;;;;22.40;20.23;;;18.60;99.90;;;;;;5076686;28;20470;-65
2021/06/19 01:27:32;;;;;;;21.63;19.63;;;18.60;99.90;;;;;;5068171;28;20554;-65
2021/06/19 01:30:03;;;;;;;21.85;19.52;;;18.60;99.90;;;;;;5089538;28;20090;-65
2021/06/19 01:32:33;;;;;;;21.50;19.42;;;18.60;99.90;;;;;;5080159;28;20474;-65
2021/06/19 01:34:59;;;;;;;21.80;19.63;;;18.60;99.90;;;;;;5079529;28;20115;-65
2021/06/19 01:37:25;;;;;;;23.55;21.55;;;18.60;99.90;;;;;;5090984;28;20123;-65
2021/06/19 01:39:50;;;;;;;24.05;21.88;;;18.60;99.90;;;;;;5092252;28;20496;-65
2021/06/19 01:42:16;;;;;;;21.58;19.77;;;18.60;99.90;;;;;;5083410;28;20071;-65
2021/06/19 01:44:41;;;;;;;27.50;24.92;;;18.60;99.90;;;;;;5071847;28;20075;-66
2021/06/19 01:47:08;;;;;;;24.15;21.85;;;18.60;99.90;;;;;;5071962;28;20094;-65
2021/06/19 01:49:35;;;;;;;30.33;27.17;;;18.60;99.90;;;;;;5054035;28;20044;-65
2021/06/19 01:52:02;;;;;;;33.03;29.52;;;18.60;99.90;;;;;;5072189;28;20115;-65
2021/06/19 01:54:37;;;;;;;30.73;27.80;;;18.60;99.90;;;;;;5080134;28;20090;-65
2021/06/19 01:57:04;;;;;;;32.00;28.83;;;18.60;99.90;;;;;;5055023;28;20036;-65
2021/06/19 01:59:29;;;;;;;32.17;29.08;;;18.60;99.90;;;;;;5071737;28;20082;-65
2021/06/19 02:01:58;;;;;;;35.40;31.80;;;18.60;99.90;;;;;;5077927;28;20043;-65
2021/06/19 02:04:25;;;;;;;33.58;30.27;;;18.60;99.90;;;;;;5071648;28;20051;-65
2021/06/19 02:06:50;;;;;;;32.67;29.40;;;18.60;99.90;;;;;;5086010;28;20107;-65
2021/06/19 02:09:16;;;;;;;38.17;34.38;;;18.70;99.90;;;;;;5082142;28;20515;-65
2021/06/19 02:11:42;;;;;;;34.50;31.27;;;18.60;99.90;;;;;;5087401;28;20037;-65
2021/06/19 02:14:08;;;;;;;37.10;33.63;;;18.60;99.90;;;;;;5071371;28;20536;-65
2021/06/19 02:16:34;;;;;;;36.67;33.20;;;18.60;99.90;;;;;;5077972;28;20036;-65
2021/06/19 02:19:00;;;;;;;36.50;33.00;;;18.60;99.90;;;;;;5080096;28;20028;-65
2021/06/19 02:21:25;;;;;;;37.03;33.40;;;18.60;99.90;;;;;;5089841;28;20110;-65
2021/06/19 02:23:51;;;;;;;38.05;34.35;;;18.60;99.90;;;;;;5090001;28;20052;-65
2021/06/19 02:26:17;;;;;;;39.05;35.10;;;18.60;99.90;;;;;;5081213;28;20035;-65
2021/06/19 02:28:43;;;;;;;39.25;35.33;;;18.60;99.90;;;;;;5072298;28;20033;-66
2021/06/19 02:31:08;;;;;;;36.97;33.38;;;18.60;99.90;;;;;;5085691;28;20039;-65
2021/06/19 02:33:34;;;;;;;39.42;35.58;;;18.50;99.90;;;;;;5082913;28;20051;-65
2021/06/19 02:36:00;;;;;;;45.92;40.90;;;18.60;99.90;;;;;;5079295;28;20469;-65
2021/06/19 02:38:25;;;;;;;42.28;38.10;;;18.60;99.90;;;;;;5084632;28;20352;-65
2021/06/19 02:40:51;;;;;;;38.17;34.33;;;18.60;99.90;;;;;;5052978;28;20044;-66
2021/06/19 02:43:18;;;;;;;40.00;36.00;;;18.60;99.90;;;;;;5070134;28;20056;-65
2021/06/19 02:45:44;;;;;;;41.65;37.33;;;18.50;99.90;;;;;;5067681;28;20107;-65
2021/06/19 02:48:11;;;;;;;42.13;37.67;;;18.60;99.90;;;;;;5089990;28;20048;-65
2021/06/19 02:50:39;;;;;;;39.63;35.00;;;18.60;99.90;;;;;;5078599;28;20036;-65
2021/06/19 02:53:06;;;;;;;42.30;38.20;;;18.60;99.90;;;;;;5070518;28;20040;-65
2021/06/19 02:55:36;;;;;;;39.92;35.95;;;18.60;99.90;;;;;;5087772;28;20136;-65
2021/06/19 02:58:05;;;;;;;45.05;40.45;;;18.60;99.90;;;;;;5076718;28;20043;-65
2021/06/19 03:00:31;;;;;;;44.15;38.22;;;18.70;99.90;;;;;;5071667;28;20051;-65
2021/06/19 03:02:57;;;;;;;40.28;36.30;;;18.70;99.90;;;;;;5081490;28;20477;-65
2021/06/19 03:05:25;;;;;;;43.65;39.05;;;18.60;99.90;;;;;;5088866;28;20059;-66
2021/06/19 03:07:52;;;;;;;37.92;34.10;;;18.70;99.90;;;;;;5067264;28;20715;-65
2021/06/19 03:10:26;;;;;;;39.67;35.70;;;18.70;99.90;;;;;;5068539;28;20142;-65
2021/06/19 03:12:52;;;;;;;39.75;35.63;;;18.70;99.90;;;;;;5080465;28;20731;-65
2021/06/19 03:15:18;;;;;;;38.63;34.83;;;18.70;99.90;;;;;;5072640;28;20040;-65
2021/06/19 03:17:44;;;;;;;36.90;33.13;;;18.70;99.90;;;;;;5071661;28;20091;-65
2021/06/19 03:20:13;;;;;;;38.90;34.78;;;18.70;99.90;;;;;;5070497;28;20097;-64
2021/06/19 03:22:47;;;;;;;36.60;33.00;;;18.70;99.90;;;;;;5081960;28;20044;-65
2021/06/19 03:25:18;;;;;;;35.65;32.17;;;18.70;99.90;;;;;;5074747;28;20034;-65
2021/06/19 03:27:45;;;;;;;35.33;31.70;;;18.70;99.90;;;;;;5081397;28;20037;-65
2021/06/19 03:30:11;;;;;;;35.20;31.38;;;18.80;99.90;;;;;;5085715;28;20253;-65
2021/06/19 03:32:38;;;;;;;35.58;31.98;;;18.80;99.90;;;;;;5085147;28;20123;-65
2021/06/19 03:35:05;;;;;;;33.42;30.23;;;18.80;99.90;;;;;;5076953;28;20064;-66
2021/06/19 03:37:31;;;;;;;31.25;28.35;;;18.80;99.90;;;;;;5075788;28;20048;-66
2021/06/19 03:39:57;;;;;;;30.85;27.95;;;18.80;99.90;;;;;;5078936;28;20038;-66
2021/06/19 03:42:23;;;;;;;31.50;28.60;;;18.90;99.90;;;;;;5085183;28;20036;-65
2021/06/19 03:44:49;;;;;;;29.48;26.55;;;18.90;99.90;;;;;;5070480;28;20132;-65
2021/06/19 03:47:14;;;;;;;29.55;26.67;;;19.00;99.90;;;;;;5075987;28;20527;-65
2021/06/19 03:49:40;;;;;;;31.63;28.48;;;19.00;99.90;;;;;;5090200;28;20048;-65
2021/06/19 03:52:06;;;;;;;28.67;25.98;;;19.00;99.90;;;;;;5071952;28;20044;-65
2021/06/19 03:54:37;;;;;;;27.85;25.05;;;19.00;99.90;;;;;;5089978;28;20119;-66
2021/06/19 03:57:04;;;;;;;26.50;23.97;;;19.10;99.90;;;;;;5088549;28;20031;-66
2021/06/19 03:59:30;;;;;;;24.90;22.70;;;19.10;99.90;;;;;;5080244;28;20102;-65
2021/06/19 04:01:55;;;;;;;24.70;22.23;;;19.10;99.90;;;;;;5069929;28;20036;-66
2021/06/19 04:04:21;;;;;;;26.48;23.77;;;19.20;99.90;;;;;;5082383;28;20067;-65
2021/06/19 04:06:46;;;;;;;24.27;21.92;;;19.20;99.90;;;;;;5056479;28;20444;-65
2021/06/19 04:09:12;;;;;;;26.02;23.38;;;19.20;99.90;;;;;;5065370;28;20036;-66
2021/06/19 04:11:38;;;;;;;23.55;21.45;;;19.20;99.90;;;;;;5092578;28;20138;-65
2021/06/19 04:14:03;;;;;;;23.70;21.63;;;19.30;99.90;;;;;;5085632;28;20052;-66
2021/06/19 04:16:29;;;;;;;21.80;19.73;;;19.30;99.90;;;;;;5056883;28;20036;-65
2021/06/19 04:18:55;;;;;;;23.25;21.00;;;19.40;99.90;;;;;;5073800;28;20112;-65
2021/06/19 04:21:20;;;;;;;22.95;20.95;;;19.40;99.90;;;;;;5073666;28;20039;-65
2021/06/19 04:23:46;;;;;;;22.63;20.52;;;19.40;99.90;;;;;;5093564;28;20032;-65
2021/06/19 04:26:12;;;;;;;23.73;21.33;;;19.50;99.90;;;;;;5093736;28;20476;-65
2021/06/19 04:28:37;;;;;;;23.27;20.98;;;19.50;99.90;;;;;;5091197;28;20047;-65
2021/06/19 04:31:03;;;;;;;22.00;19.58;;;19.60;99.90;;;;;;5086069;28;20079;-65
2021/06/19 04:33:29;;;;;;;22.05;20.15;;;19.70;99.90;;;;;;5080929;28;20097;-65
2021/06/19 04:35:56;;;;;;;22.75;20.63;;;19.70;99.90;;;;;;5087355;28;20028;-65
2021/06/19 04:38:22;;;;;;;21.88;20.08;;;19.70;99.90;;;;;;5074306;28;20047;-65
2021/06/19 04:40:56;;;;;;;20.45;18.55;;;19.80;99.90;;;;;;5077278;28;20462;-65
2021/06/19 04:43:30;;;;;;;21.42;19.33;;;19.80;99.90;;;;;;5075228;28;20044;-66
2021/06/19 04:45:55;;;;;;;21.95;20.05;;;19.90;99.90;;;;;;5073629;28;20382;-66
2021/06/19 04:48:21;;;;;;;20.85;19.05;;;20.00;99.90;;;;;;5084599;28;20048;-66
2021/06/19 04:50:48;;;;;;;21.55;19.70;;;20.00;99.90;;;;;;5081620;28;20040;-65
2021/06/19 04:53:14;;;;;;;22.88;20.58;;;20.10;99.90;;;;;;5071851;28;20051;-66
2021/06/19 04:55:40;;;;;;;21.52;19.55;;;20.20;99.90;;;;;;5082880;28;20490;-66
2021/06/19 04:58:06;;;;;;;22.17;20.02;;;20.30;99.90;;;;;;5074519;28;20411;-66
2021/06/19 05:00:33;;;;;;;19.67;17.95;;;20.40;99.90;;;;;;5084798;28;20032;-66
2021/06/19 05:02:59;;;;;;;20.42;18.50;;;20.50;99.90;;;;;;5091807;28;20039;-65
2021/06/19 05:05:27;;;;;;;20.60;18.70;;;20.60;99.90;;;;;;5086961;28;20151;-66
2021/06/19 05:07:53;;;;;;;22.45;20.00;;;20.50;99.90;;;;;;5091207;28;20032;-66
2021/06/19 05:10:19;;;;;;;22.33;20.25;;;20.60;99.90;;;;;;5092696;28;20179;-66
2021/06/19 05:12:44;;;;;;;21.65;19.52;;;20.60;99.90;;;;;;5069218;28;20044;-65
2021/06/19 05:15:12;;;;;;;20.60;18.80;;;20.60;99.90;;;;;;5092893;28;20075;-65
2021/06/19 05:17:39;;;;;;;20.75;18.50;;;20.60;99.90;;;;;;5090376;28;20032;-65
2021/06/19 05:20:06;;;;;;;20.30;18.48;;;20.70;99.90;;;;;;5092667;28;20032;-66
2021/06/19 05:22:32;;;;;;;22.40;20.05;;;20.90;99.90;;;;;;5085640;28;20033;-65
2021/06/19 05:24:57;;;;;;;20.52;18.70;;;20.90;99.90;;;;;;5072208;28;20059;-66
2021/06/19 05:27:23;;;;;;;23.05;20.85;;;20.90;99.90;;;;;;5055491;28;20138;-65
2021/06/19 05:29:49;;;;;;;21.10;18.85;;;20.90;99.90;;;;;;5072229;28;20048;-66
2021/06/19 05:32:15;;;;;;;20.80;18.80;;;20.90;99.90;;;;;;5073779;28;20132;-66
2021/06/19 05:34:41;;;;;;;21.00;19.08;;;20.80;99.90;;;;;;5092376;28;20118;-66
2021/06/19 05:37:08;;;;;;;22.48;20.48;;;20.90;99.90;;;;;;5092005;28;20043;-65
2021/06/19 05:39:34;;;;;;;21.42;18.98;;;20.90;99.90;;;;;;5072122;28;20032;-65
2021/06/19 05:41:59;;;;;;;22.05;19.98;;;20.90;99.90;;;;;;5081652;28;20111;-65
2021/06/19 05:44:25;;;;;;;20.92;18.85;;;20.90;99.90;;;;;;5073627;28;20518;-65
2021/06/19 05:46:51;;;;;;;20.27;18.38;;;21.00;99.90;;;;;;5088953;28;20052;-65
2021/06/19 05:49:17;;;;;;;20.02;18.20;;;21.00;99.90;;;;;;5087303;28;20029;-65
2021/06/19 05:51:43;;;;;;;21.15;19.20;;;21.10;99.90;;;;;;5101436;28;20044;-65
2021/06/19 05:54:08;;;;;;;23.02;20.80;;;21.10;99.90;;;;;;5112229;28;20089;-66
2021/06/19 05:56:34;;;;;;;20.80;18.85;;;21.20;99.90;;;;;;5096594;28;20044;-65
2021/06/19 05:59:00;;;;;;;20.15;18.15;;;21.20;99.90;;;;;;5090386;28;20044;-66
2021/06/19 06:01:29;;;;;;;19.10;17.30;;;21.20;99.90;;;;;;5078862;28;20040;-66
2021/06/19 06:03:55;;;;;;;19.73;17.73;;;21.30;99.90;;;;;;5071545;28;20052;-66
2021/06/19 06:06:21;;;;;;;20.10;18.30;;;21.80;99.90;;;;;;5058634;28;20044;-66
2021/06/19 06:08:46;;;;;;;18.23;16.52;;;23.20;99.90;;;;;;5071511;28;20033;-66
2021/06/19 06:11:12;;;;;;;19.27;17.48;;;24.40;99.20;;;;;;5093948;22;20064;-72
2021/06/19 06:13:38;;;;;;;16.63;15.07;;;24.50;97.80;;;;;;5083688;28;20037;-70
2021/06/19 06:16:04;;;;;;;18.48;16.52;;;25.20;97.60;;;;;;5060266;28;20427;-72
2021/06/19 06:18:29;;;;;;;17.33;15.63;;;25.30;96.80;;;;;;5071094;28;20040;-72
2021/06/19 06:20:55;;;;;;;17.88;15.98;;;25.10;95.60;;;;;;5068713;28;20795;-73
2021/06/19 06:23:23;;;;;;;16.30;14.75;;;24.90;96.60;;;;;;5036517;28;20083;-73
2021/06/19 06:25:52;;;;;;;15.77;14.27;;;24.50;96.30;;;;;;5071137;28;20041;-73
2021/06/19 06:28:18;;;;;;;17.67;15.88;;;24.10;96.40;;;;;;5069913;28;20119;-72
2021/06/19 06:30:45;;;;;;;16.90;15.38;;;23.70;97.40;;;;;;5070491;28;20128;-73
2021/06/19 06:33:11;;;;;;;17.88;16.20;;;23.40;98.10;;;;;;5091018;28;20662;-73
2021/06/19 06:35:36;;;;;;;15.90;14.10;;;23.20;98.70;;;;;;5091110;28;20036;-73
2021/06/19 06:38:03;;;;;;;15.73;14.23;;;23.30;98.20;;;;;;5091104;28;20040;-73
2021/06/19 06:40:28;;;;;;;15.57;14.02;;;23.60;97.30;;;;;;5091166;28;20127;-73
2021/06/19 06:42:54;;;;;;;14.73;13.32;;;24.30;97.70;;;;;;5091045;28;20115;-73
2021/06/19 06:45:20;;;;;;;14.18;12.88;;;25.00;96.20;;;;;;5090748;28;20449;-73
2021/06/19 06:47:45;;;;;;;13.32;12.05;;;25.60;95.50;;;;;;5089115;28;20055;-73
2021/06/19 06:50:12;;;;;;;14.05;12.65;;;26.30;94.00;;;;;;5090521;28;20126;-72
2021/06/19 06:52:38;;;;;;;14.05;12.68;;;26.60;93.10;;;;;;5090167;28;20093;-73
2021/06/19 06:55:07;;;;;;;13.25;11.75;;;26.60;92.30;;;;;;5090637;28;20036;-72
2021/06/19 06:57:33;;;;;;;13.05;11.85;;;26.80;92.10;;;;;;5070775;28;20027;-73
2021/06/19 06:59:59;;;;;;;13.18;11.80;;;26.90;91.80;;;;;;5088365;28;20093;-73
2021/06/19 07:02:25;;;;;;;13.25;12.02;;;26.40;92.70;;;;;;5088887;28;20032;-73
2021/06/19 07:04:51;;;;;;;13.55;12.25;;;26.50;91.90;;;;;;5086684;28;20029;-73
2021/06/19 07:07:18;;;;;;;13.30;12.05;;;26.90;92.00;;;;;;5070278;28;20086;-73
2021/06/19 07:09:44;;;;;;;14.13;12.75;;;27.40;92.20;;;;;;5075432;28;20078;-73
2021/06/19 07:12:10;;;;;;;14.27;12.80;;;27.60;90.70;;;;;;5072182;28;20036;-73
2021/06/19 07:14:36;;;;;;;13.55;12.15;;;27.80;90.80;;;;;;5086516;28;20044;-73
2021/06/19 07:17:07;;;;;;;12.98;11.68;;;28.20;89.60;;;;;;5076835;28;20089;-73
2021/06/19 07:19:32;;;;;;;12.85;11.60;;;28.60;89.10;;;;;;5088631;28;20046;-74
2021/06/19 07:21:58;;;;;;;13.43;12.13;;;28.80;87.70;;;;;;5085633;28;20036;-73
2021/06/19 07:24:24;;;;;;;12.50;11.10;;;28.60;87.10;;;;;;5080645;28;20114;-73
2021/06/19 07:26:50;;;;;;;12.48;11.27;;;29.10;85.50;;;;;;5080863;28;20036;-75
2021/06/19 07:29:16;;;;;;;13.00;10.65;;;29.30;84.90;;;;;;5085653;28;20040;-74
2021/06/19 07:31:42;;;;;;;13.07;11.68;;;29.40;84.70;;;;;;5069942;28;20047;-75
2021/06/19 07:34:08;;;;;;;13.52;11.55;;;29.80;84.10;;;;;;5070405;28;20127;-74
2021/06/19 07:36:34;;;;;;;13.60;9.40;;;30.10;83.70;;;;;;5085892;28;20382;-74
2021/06/19 07:38:59;;;;;;;10.07;8.98;;;30.40;78.20;;;;;;5090555;28;20044;-73
2021/06/19 07:41:25;;;;;;;9.30;8.02;;;30.60;78.00;;;;;;5085072;28;20065;-74
2021/06/19 07:43:50;;;;;;;11.75;9.60;;;30.80;78.90;;;;;;5088829;28;20044;-75
2021/06/19 07:46:17;;;;;;;11.23;9.80;;;30.20;77.60;;;;;;5089141;28;20036;-72
2021/06/19 07:48:42;;;;;;;11.55;10.35;;;29.40;78.50;;;;;;5090983;28;20034;-73
2021/06/19 07:51:08;;;;;;;12.07;10.77;;;28.30;80.80;;;;;;5072551;28;20554;-73
2021/06/19 07:53:34;;;;;;;13.90;11.93;;;27.70;85.70;;;;;;5090763;28;20098;-73
2021/06/19 07:56:00;;;;;;;13.27;12.02;;;27.00;85.40;;;;;;5090509;28;20032;-74
2021/06/19 07:58:25;;;;;;;13.50;11.60;;;26.30;88.20;;;;;;5090680;28;20032;-74
2021/06/19 08:00:51;;;;;;;15.13;11.80;;;25.90;90.60;;;;;;5090846;28;20089;-74
2021/06/19 08:03:17;;;;;;;13.23;11.80;;;25.60;91.40;;;;;;5085676;28;20156;-75
2021/06/19 08:05:42;;;;;;;15.20;12.25;;;25.30;91.70;;;;;;5087418;28;20461;-74
2021/06/19 08:08:08;;;;;;;14.77;12.57;;;24.90;92.10;;;;;;5090388;28;20035;-75
2021/06/19 08:10:34;;;;;;;14.85;13.27;;;24.50;93.00;;;;;;5090347;28;20052;-75
2021/06/19 08:12:59;;;;;;;15.25;12.68;;;24.20;93.80;;;;;;5090449;28;20466;-75
2021/06/19 08:15:26;;;;;;;15.13;13.52;;;24.00;94.00;;;;;;5109600;28;20059;-75
2021/06/19 08:17:52;;;;;;;17.67;14.07;;;24.00;94.60;;;;;;5092450;28;20040;-76
2021/06/19 08:20:18;;;;;;;16.35;14.52;;;23.90;94.60;;;;;;5069745;28;20024;-74
2021/06/19 08:22:44;;;;;;;16.80;14.25;;;23.80;95.00;;;;;;5090247;28;20036;-74
2021/06/19 08:25:11;;;;;;;22.83;16.23;;;24.00;94.50;;;;;;5085165;28;20070;-74
2021/06/19 08:27:37;;;;;;;18.75;15.63;;;24.10;94.30;;;;;;5086931;28;20039;-74
2021/06/19 08:30:05;;;;;;;19.30;15.82;;;24.20;93.70;;;;;;5089020;28;20040;-74
2021/06/19 08:32:30;;;;;;;18.10;16.17;;;24.00;94.10;;;;;;5081900;28;20493;-73
2021/06/19 08:34:56;;;;;;;19.52;17.45;;;23.90;94.40;;;;;;5089256;28;20069;-74
2021/06/19 08:37:22;;;;;;;19.10;17.10;;;23.90;94.00;;;;;;5084657;28;20051;-74
2021/06/19 08:39:47;;;;;;;19.10;17.10;;;23.80;94.40;;;;;;5085543;28;20040;-74
2021/06/19 08:42:14;;;;;;;18.77;16.80;;;23.70;94.60;;;;;;5089582;28;20413;-75
2021/06/19 08:44:44;;;;;;;21.08;17.75;;;23.50;95.20;;;;;;5086462;28;20450;-74
2021/06/19 08:47:11;;;;;;;19.35;17.30;;;23.30;95.40;;;;;;5088782;28;20097;-74
2021/06/19 08:49:37;;;;;;;17.33;15.57;;;23.20;95.20;;;;;;5089658;28;20423;-74
2021/06/19 08:52:04;;;;;;;19.25;16.05;;;23.20;95.70;;;;;;5091025;28;20108;-74
2021/06/19 08:54:38;;;;;;;17.08;15.35;;;23.10;95.80;;;;;;5089410;28;20474;-74
2021/06/19 08:57:08;;;;;;;17.52;15.20;;;23.20;95.50;;;;;;5079071;28;20055;-74
2021/06/19 08:59:36;;;;;;;17.10;15.20;;;23.50;96.10;;;;;;5092700;28;20063;-74
2021/06/19 09:02:03;;;;;;;15.88;13.77;;;23.90;95.30;;;;;;5087584;28;20518;-74
2021/06/19 09:04:29;;;;;;;16.83;14.93;;;24.20;95.50;;;;;;5087564;28;20032;-74
2021/06/19 09:06:54;;;;;;;15.00;13.43;;;24.60;94.30;;;;;;5069637;28;20085;-73
2021/06/19 09:09:20;;;;;;;14.73;13.27;;;24.80;94.10;;;;;;5075786;28;20064;-73
2021/06/19 09:11:54;;;;;;;13.98;12.68;;;24.90;93.30;;;;;;5070857;28;20118;-73
2021/06/19 09:14:28;;;;;;;13.48;12.10;;;24.90;92.50;;;;;;5093491;28;20036;-73
2021/06/19 09:17:02;;;;;;;12.50;11.20;;;24.80;92.90;;;;;;5092714;28;20024;-73
2021/06/19 09:19:33;;;;;;;12.45;9.60;;;24.70;92.90;;;;;;5092431;28;20492;-73
2021/06/19 09:22:34;;;;;;;10.57;9.55;;;24.60;92.80;;;;;;5091305;28;20036;-73
2021/06/19 09:25:01;;;;;;;11.52;10.43;;;24.60;93.00;;;;;;5023348;28;20063;-72
2021/06/19 09:27:46;;;;;;;11.68;10.45;;;24.60;93.00;;;;;;5065120;28;20056;-72
2021/06/19 09:30:16;;;;;;;10.68;9.57;;;24.60;93.20;;;;;;5088933;28;20461;-71
2021/06/19 09:32:46;;;;;;;11.55;10.45;;;24.60;93.30;;;;;;5090938;28;20115;-70
2021/06/19 09:35:35;;;;;;;11.18;10.18;;;24.50;93.20;;;;;;5093148;28;20090;-71
2021/06/19 09:38:09;;;;;;;10.48;9.57;;;24.40;93.50;;;;;;5074537;28;20674;-70
2021/06/19 09:40:45;;;;;;;11.68;10.32;;;24.50;93.50;;;;;;5091834;28;20130;-70
2021/06/19 09:43:18;;;;;;;10.32;9.20;;;24.40;93.10;;;;;;5092167;28;20052;-70
2021/06/19 09:46:03;;;;;;;9.68;8.77;;;24.50;93.30;;;;;;5084863;28;20037;-71
2021/06/19 09:48:37;;;;;;;10.68;9.45;;;24.50;92.80;;;;;;5091395;28;20127;-70
2021/06/19 09:51:18;;;;;;;11.05;9.95;;;24.50;92.90;;;;;;5089648;28;20067;-71
2021/06/19 09:53:47;;;;;;;11.20;10.10;;;24.70;92.40;;;;;;5085121;28;20118;-71
2021/06/19 09:56:16;;;;;;;12.48;11.23;;;24.70;92.40;;;;;;5086276;28;20044;-71
2021/06/19 09:58:45;;;;;;;12.70;11.48;;;24.60;91.90;;;;;;5092206;28;20055;-70
2021/06/19 10:01:18;;;;;;;14.07;12.57;;;24.60;92.70;;;;;;5071621;28;20040;-70
2021/06/19 10:03:54;;;;;;;14.00;12.70;;;24.50;93.20;;;;;;5053272;28;20037;-70
2021/06/19 10:06:20;;;;;;;14.82;13.43;;;24.50;93.00;;;;;;5072375;28;20044;-70
2021/06/19 10:08:47;;;;;;;14.93;13.35;;;24.50;93.00;;;;;;5077828;28;20068;-69
2021/06/19 10:11:14;;;;;;;17.10;15.38;;;24.70;92.70;;;;;;5092234;28;20048;-69
2021/06/19 10:13:42;;;;;;;16.00;14.43;;;24.60;92.80;;;;;;5091775;28;20044;-70
2021/06/19 10:16:10;;;;;;;17.20;15.43;;;24.60;93.10;;;;;;5091011;28;20093;-69
2021/06/19 10:18:39;;;;;;;16.55;14.85;;;24.60;93.90;;;;;;5073152;28;20156;-69
2021/06/19 10:21:05;;;;;;;16.92;14.82;;;24.70;93.60;;;;;;5079118;28;20549;-70
2021/06/19 10:23:32;;;;;;;16.38;14.68;;;24.90;92.80;;;;;;5074062;28;20104;-70
2021/06/19 10:25:57;;;;;;;17.35;15.75;;;25.10;93.60;;;;;;5091744;28;20040;-70
2021/06/19 10:28:25;;;;;;;18.27;16.17;;;24.90;92.90;;;;;;5073036;28;20583;-70
2021/06/19 10:30:51;;;;;;;19.42;17.40;;;24.70;93.20;;;;;;5067400;28;20109;-69
2021/06/19 10:33:34;;;;;;;19.85;17.60;;;24.60;93.10;;;;;;5085459;28;20044;-69
2021/06/19 10:36:03;;;;;;;19.58;17.52;;;24.50;93.60;;;;;;5081133;28;20128;-69
2021/06/19 10:38:30;;;;;;;19.48;17.38;;;24.40;93.50;;;;;;5092176;28;20051;-69
2021/06/19 10:41:01;;;;;;;20.00;18.00;;;24.40;93.60;;;;;;5084407;28;20036;-69
2021/06/19 10:43:27;;;;;;;19.27;17.38;;;24.40;94.50;;;;;;5091819;28;20127;-69
2021/06/19 10:46:42;;;;;;;19.67;17.77;;;24.40;94.00;;;;;;5091558;28;20118;-70
2021/06/19 10:49:20;;;;;;;17.05;14.30;;;24.40;94.00;;;;;;5076541;28;20048;-70
2021/06/19 10:51:46;;;;;;;17.48;15.85;;;24.90;94.40;;;;;;5073732;28;20036;-69
2021/06/19 10:54:25;;;;;;;17.00;15.40;;;25.20;92.60;;;;;;5090077;28;20044;-69
2021/06/19 10:56:56;;;;;;;18.95;17.15;;;25.30;92.70;;;;;;5090974;28;20040;-71
2021/06/19 10:59:27;;;;;;;16.10;14.40;;;25.30;92.00;;;;;;5090697;28;20044;-71
2021/06/19 11:01:56;;;;;;;16.92;15.20;;;25.50;92.20;;;;;;5090684;28;20044;-70
2021/06/19 11:04:40;;;;;;;15.90;14.45;;;25.40;91.90;;;;;;5087384;28;20046;-71
2021/06/19 11:07:18;;;;;;;15.93;14.43;;;25.40;92.30;;;;;;5087670;28;20500;-70
2021/06/19 11:09:48;;;;;;;15.57;14.20;;;25.50;91.70;;;;;;5085603;28;20063;-70
2021/06/19 11:12:32;;;;;;;14.00;12.80;;;25.60;92.00;;;;;;5071208;28;20907;-70
2021/06/19 11:15:02;;;;;;;14.38;13.18;;;25.60;92.00;;;;;;5067734;28;20056;-70
2021/06/19 11:17:34;;;;;;;13.52;12.43;;;25.60;91.40;;;;;;5091317;28;20470;-71
2021/06/19 11:20:02;;;;;;;;;;;25.50;92.40;;;;;;5094724;28;20506;-70
2021/06/19 11:22:42;;;;;;;12.80;11.70;;;25.40;92.20;;;;;;5090709;28;20002;-70
2021/06/19 11:26:12;;;;;;;15.38;14.00;;;25.30;92.50;;;;;;5079250;28;20086;-70
2021/06/19 11:28:19;;;;;;;14.27;13.02;;;25.30;92.30;;;;;;5080617;28;20527;-70
2021/06/19 11:30:47;;;;;;;14.25;12.93;;;25.30;92.50;;;;;;5085742;28;20123;-70
2021/06/19 11:35:58;;;;;;;15.00;13.70;;;25.50;91.80;;;;;;5089455;28;20109;-70
2021/06/19 11:38:25;;;;;;;13.75;12.55;;;25.40;91.80;;;;;;5072622;28;20538;-70
2021/06/19 11:40:51;;;;;;;15.25;14.02;;;25.50;92.20;;;;;;5087520;28;20032;-70
2021/06/19 11:43:30;;;;;;;15.15;13.77;;;25.70;91.30;;;;;;5091078;28;20701;-70
2021/06/19 11:46:00;;;;;;;15.20;13.90;;;25.80;91.30;;;;;;5090447;28;20036;-70
2021/06/19 11:48:25;;;;;;;12.95;11.77;;;25.70;91.20;;;;;;5085161;28;20116;-70
2021/06/19 11:51:01;;;;;;;13.45;12.35;;;25.60;91.30;;;;;;5080368;28;20123;-71
2021/06/19 11:53:33;;;;;;;12.27;11.15;;;25.50;91.30;;;;;;5083048;28;20054;-70
2021/06/19 11:56:25;;;;;;;13.65;12.45;;;25.40;91.60;;;;;;5087636;28;20092;-74
2021/06/19 11:58:56;;;;;;;12.02;11.13;;;25.50;91.70;;;;;;5075874;28;20044;-74
2021/06/19 12:01:34;;;;;;;12.75;11.75;;;25.50;91.40;;;;;;5068071;28;20025;-74
2021/06/19 12:04:03;;;;;;;12.30;11.30;;;25.40;91.40;;;;;;5089003;28;20044;-74
2021/06/19 12:06:40;;;;;;;12.18;11.07;;;25.40;92.00;;;;;;5090601;28;20040;-73
2021/06/19 12:09:07;;;;;;;12.65;11.55;;;25.50;92.70;;;;;;5089863;28;20062;-73
2021/06/19 12:11:36;;;;;;;12.95;11.88;;;25.50;92.00;;;;;;5089588;28;20040;-73
2021/06/19 12:14:18;;;;;;;12.20;10.95;;;25.60;91.80;;;;;;5088598;28;20052;-73
2021/06/19 12:16:45;;;;;;;12.00;11.00;;;25.70;91.70;;;;;;5088815;28;20446;-73
2021/06/19 12:19:11;;;;;;;13.02;12.00;;;25.70;91.70;;;;;;5088013;28;20484;-73
2021/06/19 12:21:39;;;;;;;13.43;12.32;;;25.50;91.60;;;;;;5096098;28;20085;-73
2021/06/19 12:24:20;;;;;;;11.35;10.35;;;25.60;91.30;;;;;;5110805;28;20127;-74
2021/06/19 12:26:57;;;;;;;12.48;11.52;;;25.70;92.10;;;;;;5097616;28;20040;-73
2021/06/19 12:29:31;;;;;;;13.07;11.88;;;25.70;91.80;;;;;;5094136;28;20036;-74
2021/06/19 12:31:57;;;;;;;11.75;10.85;;;25.90;91.50;;;;;;5094392;28;20036;-74
2021/06/19 12:34:26;;;;;;;12.07;11.07;;;25.90;91.00;;;;;;5092913;28;20042;-73
2021/06/19 12:36:52;;;;;;;11.95;10.98;;;25.80;91.20;;;;;;5091158;28;20055;-73